createdAt,value
2024-04-24T00:01:46.507Z,100.00
2024-04-24T00:04:55.562Z,100.00
2024-04-24T00:08:04.108Z,100.00
2024-04-24T00:11:12.276Z,100.00
2024-04-24T00:14:09.222Z,100.00
2024-04-24T00:17:07.479Z,100.00
2024-04-24T00:20:19.047Z,100.00
2024-04-24T00:23:11.476Z,100.00
2024-04-24T00:26:39.074Z,100.00
2024-04-24T00:29:29.141Z,100.00
2024-04-24T00:32:37.468Z,100.00
2024-04-24T00:35:25.668Z,100.00
2024-04-24T00:38:21.401Z,100.00
2024-04-24T00:41:31.485Z,100.00
2024-04-24T00:44:27.679Z,100.00
2024-04-24T00:47:00.565Z,100.00
2024-04-24T00:50:10.451Z,100.00
2024-04-24T00:53:33.853Z,100.00
2024-04-24T00:56:42.587Z,100.00
2024-04-24T00:59:35.582Z,100.00
2024-04-24T01:02:06.042Z,100.00
2024-04-24T01:04:59.111Z,100.00
2024-04-24T01:08:26.760Z,100.00
2024-04-24T01:11:49.983Z,100.00
2024-04-24T01:14:37.504Z,100.00
2024-04-24T01:17:45.413Z,100.00
2024-04-24T01:20:56.546Z,100.00
2024-04-24T01:23:53.258Z,100.00
2024-04-24T01:26:49.044Z,100.00
2024-04-24T01:29:38.469Z,100.00
2024-04-24T01:32:46.373Z,100.00
2024-04-24T01:35:15.436Z,100.00
2024-04-24T01:37:53.264Z,100.00
2024-04-24T01:40:46.776Z,100.00
2024-04-24T01:43:55.094Z,100.00
2024-04-24T01:46:41.200Z,100.00
2024-04-24T01:49:31.228Z,100.00
2024-04-24T01:52:51.070Z,100.00
2024-04-24T01:56:19.222Z,100.00
2024-04-24T01:59:08.175Z,100.00
2024-04-24T02:02:04.543Z,100.00
2024-04-24T02:05:14.262Z,100.00
2024-04-24T02:08:42.099Z,100.00
2024-04-24T02:11:56.932Z,100.00
2024-04-24T02:14:37.841Z,100.00
2024-04-24T02:17:50.505Z,100.00
2024-04-24T02:21:00.339Z,100.00
2024-04-24T02:24:28.596Z,100.00
2024-04-24T02:27:52.908Z,100.00
2024-04-24T02:30:40.529Z,100.00
2024-04-24T02:33:31.130Z,100.00
2024-04-24T02:36:58.839Z,100.00
2024-04-24T02:40:26.965Z,100.00
2024-04-24T02:43:34.819Z,100.00
2024-04-24T02:46:04.166Z,100.00
2024-04-24T02:49:08.666Z,100.00
2024-04-24T02:52:01.062Z,100.00
2024-04-24T02:55:04.648Z,100.00
2024-04-24T02:58:02.082Z,100.00
2024-04-24T03:01:30.023Z,100.00
2024-04-24T03:04:38.196Z,100.00
2024-04-24T03:08:02.219Z,100.00
2024-04-24T03:11:11.046Z,100.00
2024-04-24T03:14:21.453Z,100.00
2024-04-24T03:17:29.903Z,100.00
2024-04-24T03:20:22.274Z,100.00
2024-04-24T03:23:49.820Z,100.00
2024-04-24T03:26:58.198Z,100.00
2024-04-24T03:30:02.412Z,100.00
2024-04-24T03:33:17.947Z,100.00
2024-04-24T03:36:30.113Z,100.00
2024-04-24T03:39:30.000Z,100.00
2024-04-24T03:42:41.918Z,100.00
2024-04-24T03:46:09.885Z,100.00
2024-04-24T03:49:18.013Z,100.00
2024-04-24T03:52:08.155Z,100.00
2024-04-24T03:55:00.541Z,100.00
2024-04-24T03:57:49.466Z,100.00
2024-04-24T04:00:59.402Z,100.00
2024-04-24T04:04:09.284Z,100.00
2024-04-24T04:07:17.302Z,100.00
2024-04-24T04:10:09.530Z,100.00
2024-04-24T04:13:03.963Z,100.00
2024-04-24T04:16:15.460Z,100.00
2024-04-24T04:19:43.126Z,100.00
2024-04-24T04:22:55.910Z,100.00
2024-04-24T04:25:43.789Z,100.00
2024-04-24T04:28:53.540Z,100.00
2024-04-24T04:32:01.503Z,100.00
2024-04-24T04:35:25.120Z,100.00
2024-04-24T04:38:05.189Z,100.00
2024-04-24T04:40:44.431Z,100.00
2024-04-24T04:43:52.248Z,100.00
2024-04-24T04:46:46.386Z,100.00
2024-04-24T04:49:50.801Z,100.00
2024-04-24T04:52:59.601Z,100.00
2024-04-24T04:55:44.654Z,100.00
2024-04-24T04:58:21.996Z,100.00
2024-04-24T05:01:10.363Z,100.00
2024-04-24T05:04:04.174Z,100.00
2024-04-24T05:07:32.183Z,100.00
2024-04-24T05:10:40.150Z,100.00
2024-04-24T05:13:29.571Z,100.00
2024-04-24T05:16:57.273Z,100.00
2024-04-24T05:20:05.567Z,100.00
2024-04-24T05:22:54.377Z,100.00
2024-04-24T05:25:51.258Z,100.00
2024-04-24T05:28:24.087Z,100.00
2024-04-24T05:31:15.974Z,100.00
2024-04-24T05:34:31.301Z,100.00
2024-04-24T05:37:30.239Z,100.00
2024-04-24T05:40:45.905Z,100.00
2024-04-24T05:43:55.457Z,100.00
2024-04-24T05:47:04.332Z,100.00
2024-04-24T05:50:13.167Z,100.00
2024-04-24T05:53:24.731Z,100.00
2024-04-24T05:56:06.416Z,100.00
2024-04-24T05:59:18.744Z,100.00
2024-04-24T06:02:07.641Z,100.00
2024-04-24T06:05:15.707Z,100.00
2024-04-24T06:07:50.319Z,100.00
2024-04-24T06:11:01.412Z,100.00
2024-04-24T06:14:10.104Z,100.00
2024-04-24T06:16:43.907Z,100.00
2024-04-24T06:19:31.768Z,100.00
2024-04-24T06:22:00.550Z,100.00
2024-04-24T06:25:28.380Z,100.00
2024-04-24T06:28:36.766Z,100.00
2024-04-24T06:31:45.928Z,100.00
2024-04-24T06:34:38.064Z,100.00
2024-04-24T06:37:46.616Z,100.00
2024-04-24T06:40:40.426Z,100.00
2024-04-24T06:43:13.820Z,100.00
2024-04-24T06:46:21.967Z,100.00
2024-04-24T06:49:12.142Z,100.00
2024-04-24T06:52:20.515Z,100.00
2024-04-24T06:55:29.332Z,100.00
2024-04-24T06:58:38.085Z,100.00
2024-04-24T07:01:34.129Z,100.00
2024-04-24T07:04:19.119Z,100.00
2024-04-24T07:07:08.136Z,100.00
2024-04-24T07:09:38.562Z,100.00
2024-04-24T07:12:12.397Z,100.00
2024-04-24T07:14:42.126Z,100.00
2024-04-24T07:18:03.219Z,100.00
2024-04-24T07:20:52.970Z,100.00
2024-04-24T07:24:00.605Z,100.00
2024-04-24T07:26:55.849Z,100.00
2024-04-24T07:29:45.258Z,100.00
2024-04-24T07:32:35.199Z,100.00
2024-04-24T07:35:24.228Z,100.00
2024-04-24T07:38:52.495Z,100.00
2024-04-24T07:41:43.338Z,100.00
2024-04-24T07:44:47.900Z,100.00
2024-04-24T07:47:20.245Z,100.00
2024-04-24T07:50:10.312Z,100.00
2024-04-24T07:53:18.039Z,100.00
2024-04-24T07:56:06.342Z,100.00
2024-04-24T07:58:55.626Z,100.00
2024-04-24T08:01:44.986Z,100.00
2024-04-24T08:04:41.083Z,100.00
2024-04-24T08:07:09.908Z,100.00
2024-04-24T08:09:47.028Z,100.00
2024-04-24T08:12:32.182Z,100.00
2024-04-24T08:15:25.846Z,100.00
2024-04-24T08:17:58.487Z,100.00
2024-04-24T08:20:48.005Z,100.00
2024-04-24T08:23:32.199Z,100.00
2024-04-24T08:26:08.881Z,100.00
2024-04-24T08:28:56.941Z,100.00
2024-04-24T08:31:35.810Z,100.00
2024-04-24T08:34:40.509Z,100.00
2024-04-24T08:37:10.133Z,100.00
2024-04-24T08:39:59.954Z,100.00
2024-04-24T08:42:37.449Z,100.00
2024-04-24T08:45:08.672Z,100.00
2024-04-24T08:48:17.307Z,100.00
2024-04-24T08:51:13.579Z,100.00
2024-04-24T08:54:22.070Z,100.00
2024-04-24T08:57:21.701Z,100.00
2024-04-24T09:00:12.158Z,100.00
2024-04-24T09:03:15.517Z,100.00
2024-04-24T09:06:03.938Z,100.00
2024-04-24T09:09:12.054Z,100.00
2024-04-24T09:12:02.000Z,100.00
2024-04-24T09:15:03.098Z,100.00
2024-04-24T09:18:31.621Z,100.00
2024-04-24T09:21:39.793Z,100.00
2024-04-24T09:24:31.883Z,100.00
2024-04-24T09:27:35.749Z,100.00
2024-04-24T09:30:05.653Z,100.00
2024-04-24T09:32:35.238Z,100.00
2024-04-24T09:35:41.505Z,100.00
2024-04-24T09:38:33.120Z,100.00
2024-04-24T09:41:42.909Z,100.00
2024-04-24T09:44:51.113Z,100.00
2024-04-24T09:47:28.092Z,100.00
2024-04-24T09:50:24.467Z,100.00
2024-04-24T09:53:18.507Z,100.00
2024-04-24T09:56:26.025Z,100.00
2024-04-24T09:58:57.316Z,100.00
2024-04-24T10:01:31.369Z,100.00
2024-04-24T10:04:15.074Z,100.00
2024-04-24T10:07:24.360Z,100.00
2024-04-24T10:10:13.460Z,100.00
2024-04-24T10:13:21.399Z,100.00
2024-04-24T10:15:50.960Z,100.00
2024-04-24T10:18:20.139Z,100.00
2024-04-24T10:21:24.493Z,100.00
2024-04-24T10:23:54.543Z,100.00
2024-04-24T10:27:03.179Z,99.67
2024-04-24T10:30:11.724Z,99.94
2024-04-24T10:33:02.082Z,97.03
2024-04-24T10:35:30.541Z,100.00
2024-04-24T10:38:07.928Z,93.07
2024-04-24T10:41:00.711Z,94.75
2024-04-24T10:44:06.076Z,95.06
2024-04-24T10:47:21.868Z,94.95
2024-04-24T10:50:30.407Z,96.34
2024-04-24T10:53:00.755Z,96.19
2024-04-24T10:56:03.797Z,98.28
2024-04-24T10:58:32.307Z,95.09
2024-04-24T11:01:22.123Z,95.07
2024-04-24T11:04:27.591Z,94.93
2024-04-24T11:07:43.254Z,95.52
2024-04-24T11:10:46.826Z,91.21
2024-04-24T11:13:54.584Z,91.13
2024-04-24T11:17:22.445Z,89.02
2024-04-24T11:19:51.747Z,90.25
2024-04-24T11:23:20.171Z,88.88
2024-04-24T11:25:56.485Z,83.74
2024-04-24T11:28:53.680Z,79.01
2024-04-24T11:31:22.161Z,79.62
2024-04-24T11:34:14.410Z,78.68
2024-04-24T11:37:22.138Z,79.65
2024-04-24T11:39:51.058Z,81.00
2024-04-24T11:42:24.991Z,82.11
2024-04-24T11:44:53.107Z,83.42
2024-04-24T11:47:56.962Z,82.85
2024-04-24T11:51:04.305Z,83.57
2024-04-24T11:54:20.260Z,81.59
2024-04-24T11:57:25.295Z,80.44
2024-04-24T11:59:56.207Z,78.93
2024-04-24T12:02:26.162Z,77.81
2024-04-24T12:05:31.116Z,76.24
2024-04-24T12:08:00.310Z,76.44
2024-04-24T12:10:33.690Z,74.97
2024-04-24T12:13:23.590Z,75.41
2024-04-24T12:16:13.574Z,73.47
2024-04-24T12:19:02.422Z,71.64
2024-04-24T12:21:31.543Z,72.52
2024-04-24T12:24:01.002Z,71.97
2024-04-24T12:26:49.633Z,69.83
2024-04-24T12:29:18.627Z,67.06
2024-04-24T12:32:29.344Z,65.60
2024-04-24T12:35:53.073Z,65.11
2024-04-24T12:38:41.946Z,66.20
2024-04-24T12:41:09.985Z,65.21
2024-04-24T12:44:18.369Z,66.91
2024-04-24T12:46:51.578Z,64.04
2024-04-24T12:49:42.244Z,66.63
2024-04-24T12:52:18.971Z,65.29
2024-04-24T12:55:05.376Z,63.54
2024-04-24T12:58:08.894Z,61.07
2024-04-24T13:01:16.601Z,60.31
2024-04-24T13:04:05.280Z,58.70
2024-04-24T13:06:55.955Z,59.99
2024-04-24T13:09:50.266Z,57.13
2024-04-24T13:12:22.036Z,59.69
2024-04-24T13:14:51.856Z,57.78
2024-04-24T13:17:41.260Z,55.71
2024-04-24T13:20:10.488Z,55.06
2024-04-24T13:22:43.501Z,53.39
2024-04-24T13:25:31.528Z,53.65
2024-04-24T13:27:59.691Z,53.77
2024-04-24T13:30:48.237Z,54.47
2024-04-24T13:33:56.452Z,56.74
2024-04-24T13:36:43.822Z,58.08
2024-04-24T13:39:15.149Z,58.14
2024-04-24T13:42:27.059Z,59.18
2024-04-24T13:45:16.024Z,58.51
2024-04-24T13:47:46.882Z,58.19
2024-04-24T13:50:16.681Z,57.97
2024-04-24T13:52:55.220Z,58.50
2024-04-24T13:56:03.591Z,59.17
2024-04-24T13:58:53.883Z,59.66
2024-04-24T14:01:49.702Z,60.49
2024-04-24T14:04:42.294Z,60.76
2024-04-24T14:07:51.142Z,61.42
2024-04-24T14:10:28.499Z,61.74
2024-04-24T14:13:18.768Z,61.55
2024-04-24T14:16:08.545Z,61.22
2024-04-24T14:18:46.812Z,58.46
2024-04-24T14:21:55.592Z,58.06
2024-04-24T14:24:52.317Z,58.97
2024-04-24T14:27:30.089Z,58.09
2024-04-24T14:30:38.088Z,57.86
2024-04-24T14:33:28.642Z,58.75
2024-04-24T14:36:07.100Z,59.90
2024-04-24T14:38:38.907Z,60.67
2024-04-24T14:41:22.235Z,61.86
2024-04-24T14:43:51.838Z,62.43
2024-04-24T14:46:43.446Z,63.28
2024-04-24T14:49:28.190Z,64.14
2024-04-24T14:52:03.024Z,65.61
2024-04-24T14:55:27.435Z,67.09
2024-04-24T14:58:01.299Z,68.91
2024-04-24T15:01:29.314Z,73.81
2024-04-24T15:04:33.058Z,80.31
2024-04-24T15:07:12.190Z,82.43
2024-04-24T15:10:40.445Z,88.94
2024-04-24T15:13:31.860Z,91.88
2024-04-24T15:16:59.653Z,98.86
2024-04-24T15:19:52.862Z,100.00
2024-04-24T15:23:04.486Z,100.00
2024-04-24T15:26:13.234Z,100.00
2024-04-24T15:29:41.136Z,100.00
2024-04-24T15:33:08.928Z,100.00
2024-04-24T15:36:17.228Z,100.00
2024-04-24T15:39:05.791Z,100.00
2024-04-24T15:42:14.316Z,100.00
2024-04-24T15:45:03.830Z,100.00
2024-04-24T15:48:31.449Z,100.00
2024-04-24T15:51:59.176Z,100.00
2024-04-24T15:55:26.939Z,100.00
2024-04-24T15:58:54.495Z,100.00
2024-04-24T16:02:22.184Z,100.00
2024-04-24T16:05:29.722Z,100.00
2024-04-24T16:08:57.710Z,100.00
2024-04-24T16:12:25.632Z,100.00
2024-04-24T16:15:33.631Z,100.00
2024-04-24T16:18:25.832Z,100.00
2024-04-24T16:21:18.284Z,100.00
2024-04-24T16:23:50.134Z,100.00
2024-04-24T16:27:01.967Z,100.00
2024-04-24T16:29:55.828Z,100.00
2024-04-24T16:33:00.498Z,100.00
2024-04-24T16:36:23.459Z,100.00
2024-04-24T16:39:35.757Z,100.00
2024-04-24T16:43:04.050Z,100.00
2024-04-24T16:46:15.272Z,100.00
2024-04-24T16:49:09.310Z,100.00
2024-04-24T16:52:01.662Z,100.00
2024-04-24T16:55:29.828Z,100.00
2024-04-24T16:58:53.619Z,100.00
2024-04-24T17:02:05.127Z,100.00
2024-04-24T17:05:12.804Z,100.00
2024-04-24T17:08:24.540Z,100.00
2024-04-24T17:11:32.974Z,100.00
2024-04-24T17:15:01.347Z,100.00
2024-04-24T17:18:09.750Z,100.00
2024-04-24T17:21:37.581Z,100.00
2024-04-24T17:25:05.619Z,100.00
2024-04-24T17:28:15.357Z,100.00
2024-04-24T17:31:02.993Z,100.00
2024-04-24T17:34:11.111Z,100.00
2024-04-24T17:37:08.398Z,100.00
2024-04-24T17:39:57.455Z,100.00
2024-04-24T17:43:05.573Z,100.00
2024-04-24T17:46:03.848Z,100.00
2024-04-24T17:49:31.375Z,100.00
2024-04-24T17:52:41.580Z,100.00
2024-04-24T17:55:30.824Z,100.00
2024-04-24T17:58:39.164Z,100.00
2024-04-24T18:02:07.043Z,100.00
2024-04-24T18:05:34.851Z,100.00
2024-04-24T18:09:02.682Z,100.00
2024-04-24T18:12:30.658Z,100.00
2024-04-24T18:15:38.219Z,100.00
2024-04-24T18:19:06.560Z,100.00
2024-04-24T18:22:34.470Z,100.00
2024-04-24T18:26:02.188Z,100.00
2024-04-24T18:29:18.486Z,100.00
2024-04-24T18:32:30.559Z,100.00
2024-04-24T18:35:58.738Z,100.00
2024-04-24T18:38:44.846Z,100.00
2024-04-24T18:42:12.549Z,100.00
2024-04-24T18:45:40.260Z,100.00
2024-04-24T18:49:08.255Z,100.00
2024-04-24T18:52:36.143Z,100.00
2024-04-24T18:56:03.899Z,100.00
2024-04-24T18:59:32.116Z,100.00
2024-04-24T19:02:59.854Z,100.00
2024-04-24T19:06:15.826Z,100.00
2024-04-24T19:09:43.419Z,100.00
2024-04-24T19:13:11.242Z,100.00
2024-04-24T19:16:19.984Z,100.00
2024-04-24T19:19:47.914Z,100.00
2024-04-24T19:23:15.620Z,100.00
2024-04-24T19:26:39.441Z,100.00
2024-04-24T19:30:06.986Z,100.00
2024-04-24T19:33:22.519Z,100.00
2024-04-24T19:36:50.406Z,100.00
2024-04-24T19:40:14.305Z,100.00
2024-04-24T19:43:42.091Z,100.00
2024-04-24T19:47:10.175Z,100.00
2024-04-24T19:50:38.164Z,100.00
2024-04-24T19:53:46.281Z,100.00
2024-04-24T19:57:14.277Z,100.00
2024-04-24T20:00:41.799Z,100.00
2024-04-24T20:04:09.828Z,100.00
2024-04-24T20:07:37.327Z,100.00
2024-04-24T20:11:05.046Z,100.00
2024-04-24T20:14:32.928Z,100.00
2024-04-24T20:17:30.239Z,100.00
2024-04-24T20:20:57.759Z,100.00
2024-04-24T20:24:25.365Z,100.00
2024-04-24T20:27:33.416Z,100.00
2024-04-24T20:31:00.990Z,100.00
2024-04-24T20:34:28.878Z,100.00
2024-04-24T20:37:56.396Z,100.00
2024-04-24T20:41:24.087Z,100.00
2024-04-24T20:44:51.534Z,100.00
2024-04-24T20:48:19.168Z,100.00
2024-04-24T20:51:27.763Z,100.00
2024-04-24T20:54:35.466Z,100.00
2024-04-24T20:58:03.181Z,100.00
2024-04-24T21:01:30.891Z,100.00
2024-04-24T21:04:58.870Z,100.00
2024-04-24T21:08:26.273Z,100.00
2024-04-24T21:11:53.940Z,100.00
2024-04-24T21:15:02.717Z,100.00
2024-04-24T21:18:31.157Z,100.00
2024-04-24T21:21:59.017Z,100.00
2024-04-24T21:25:26.698Z,100.00
2024-04-24T21:28:49.840Z,100.00
2024-04-24T21:32:17.510Z,100.00
2024-04-24T21:35:44.989Z,100.00
2024-04-24T21:38:52.536Z,100.00
2024-04-24T21:42:20.547Z,100.00
2024-04-24T21:45:47.974Z,100.00
2024-04-24T21:49:03.918Z,100.00
2024-04-24T21:52:12.574Z,100.00
2024-04-24T21:55:40.631Z,100.00
2024-04-24T21:59:08.153Z,100.00
2024-04-24T22:02:36.031Z,100.00
2024-04-24T22:06:03.948Z,100.00
2024-04-24T22:09:11.549Z,100.00
2024-04-24T22:12:38.937Z,100.00
2024-04-24T22:16:06.401Z,100.00
2024-04-24T22:19:33.975Z,100.00
2024-04-24T22:22:41.581Z,100.00
2024-04-24T22:26:09.051Z,100.00
2024-04-24T22:29:18.631Z,100.00
2024-04-24T22:32:46.369Z,100.00
2024-04-24T22:36:13.812Z,100.00
2024-04-24T22:39:26.357Z,100.00
2024-04-24T22:42:54.031Z,100.00
2024-04-24T22:45:43.715Z,100.00
2024-04-24T22:49:11.389Z,100.00
2024-04-24T22:52:00.634Z,100.00
2024-04-24T22:55:28.257Z,100.00
2024-04-24T22:58:37.154Z,100.00
2024-04-24T23:02:04.806Z,100.00
2024-04-24T23:05:32.723Z,100.00
2024-04-24T23:08:42.359Z,100.00
2024-04-24T23:11:58.407Z,100.00
2024-04-24T23:14:46.638Z,100.00
2024-04-24T23:18:14.335Z,100.00
2024-04-24T23:21:42.226Z,100.00
2024-04-24T23:25:09.752Z,100.00
2024-04-24T23:28:37.410Z,100.00
2024-04-24T23:32:05.243Z,100.00
2024-04-24T23:35:32.691Z,100.00
2024-04-24T23:39:00.329Z,100.00
2024-04-24T23:42:08.735Z,100.00
2024-04-24T23:45:36.194Z,100.00
2024-04-24T23:49:04.144Z,100.00
2024-04-24T23:52:31.645Z,100.00
2024-04-24T23:55:59.156Z,100.00
2024-04-24T23:58:48.993Z,100.00
